Time;durP1;ratioP1;P1;durP2;ratioP2;P2;SDS_P1;SDS_P2;PMS_P1;PMS_P2;Temp;Humidity;BMP_temperature;BMP_pressure;BME280_temperature;BME280_humidity;BME280_pressure;Samples;Min_cycle;Max_cycle;Signal;HPM_P1;HPM_P2
2022/10/13 00:00:59;;;;;;;7.07;5.43;;;;;;;15.27;55.42;100379.19;4482493;31;34056;-68
2022/10/13 00:03:27;;;;;;;9.63;4.72;;;;;;;15.24;55.48;100379.44;4495675;31;35151;-68
2022/10/13 00:05:54;;;;;;;10.65;6.78;;;;;;;15.14;55.55;100377.53;4494436;31;32977;-69
2022/10/13 00:08:24;;;;;;;7.62;4.75;;;;;;;15.17;55.36;100373.72;4498625;31;31798;-67
2022/10/13 00:10:52;;;;;;;5.12;3.05;;;;;;;15.17;55.30;100371.03;4498080;31;34055;-67
2022/10/13 00:13:21;;;;;;;8.65;3.35;;;;;;;15.22;54.85;100373.34;4497930;31;34079;-68
2022/10/13 00:15:49;;;;;;;10.30;4.68;;;;;;;15.20;54.29;100364.53;4502835;31;35126;-66
2022/10/13 00:18:16;;;;;;;7.32;5.62;;;;;;;15.13;54.32;100367.72;4511865;31;32994;-69
2022/10/13 00:20:48;;;;;;;9.07;5.00;;;;;;;15.09;54.52;100379.75;4507822;31;32641;-67
2022/10/13 00:23:16;;;;;;;10.00;5.62;;;;;;;15.03;54.78;100380.28;4506337;31;33743;-67
2022/10/13 00:25:48;;;;;;;8.50;6.10;;;;;;;14.90;55.43;100376.88;4493918;31;32447;-67
2022/10/13 00:28:18;;;;;;;7.22;5.35;;;;;;;14.88;55.52;100373.44;4485609;31;33463;-68
2022/10/13 00:30:46;;;;;;;8.95;6.00;;;;;;;14.94;55.21;100378.34;4493958;31;34024;-69
2022/10/13 00:33:13;;;;;;;7.47;4.80;;;;;;;14.99;55.23;100377.94;4495940;31;32645;-66
2022/10/13 00:35:46;;;;;;;8.35;5.47;;;;;;;15.00;55.10;100383.22;4494948;31;33560;-66
2022/10/13 00:38:17;;;;;;;7.55;5.15;;;;;;;15.00;55.16;100379.69;4485732;31;33129;-68
2022/10/13 00:40:54;;;;;;;5.47;3.85;;;;;;;14.99;55.40;100375.25;4496349;31;33923;-69
2022/10/13 00:43:47;;;;;;;9.65;4.93;;;;;;;14.99;55.44;100381.53;4484729;31;33289;-67
2022/10/13 00:46:14;;;;;;;6.22;4.37;;;;;;;14.93;56.03;100376.63;4490882;31;33846;-68
2022/10/13 00:48:43;;;;;;;18.05;6.03;;;;;;;14.96;56.30;100370.09;4498367;31;33383;-69
2022/10/13 00:51:13;;;;;;;11.05;6.00;;;;;;;14.95;56.13;100368.41;4483491;31;34796;-66
2022/10/13 00:53:41;;;;;;;7.60;3.60;;;;;;;14.76;56.80;100369.06;4498768;31;33079;-67
2022/10/13 00:56:10;;;;;;;8.88;5.80;;;;;;;14.86;56.26;100370.00;4487653;31;34945;-67
2022/10/13 00:58:39;;;;;;;8.75;5.78;;;;;;;14.85;56.35;100362.91;4495108;31;35043;-66
2022/10/13 01:01:07;;;;;;;7.57;4.32;;;;;;;14.85;56.67;100363.78;4508665;31;32452;-66
2022/10/13 01:03:35;;;;;;;5.90;4.55;;;;;;;14.88;56.70;100359.97;4509805;31;35396;-66
2022/10/13 01:06:04;;;;;;;8.45;5.87;;;;;;;14.95;56.55;100355.78;4486460;31;34610;-67
2022/10/13 01:08:32;;;;;;;7.37;5.60;;;;;;;14.86;56.71;100361.94;4483434;31;33199;-66
2022/10/13 01:11:06;;;;;;;12.23;5.50;;;;;;;15.00;56.69;100369.75;4496251;31;34088;-67
2022/10/13 01:13:40;;;;;;;6.85;5.65;;;;;;;14.91;57.00;100363.28;4499459;31;34926;-67
2022/10/13 01:16:18;;;;;;;9.02;5.72;;;;;;;14.66;57.67;100367.13;4497240;31;33367;-67
2022/10/13 01:19:00;;;;;;;7.20;4.80;;;;;;;14.65;57.31;100365.41;4498346;31;34293;-67
2022/10/13 01:21:37;;;;;;;7.28;5.18;;;;;;;14.74;57.50;100373.75;4513853;31;33494;-67
2022/10/13 01:24:24;;;;;;;9.52;4.95;;;;;;;14.66;57.62;100369.81;4500235;31;34160;-66
2022/10/13 01:27:25;;;;;;;9.88;5.25;;;;;;;14.66;57.82;100368.97;4513786;31;34871;-67
2022/10/13 01:30:03;;;;;;;8.30;4.47;;;;;;;14.69;57.74;100363.34;4481973;31;33378;-67
2022/10/13 01:33:04;;;;;;;6.70;5.43;;;;;;;14.61;57.80;100368.50;4497737;31;33622;-66
2022/10/13 01:35:38;;;;;;;6.00;4.65;;;;;;;14.70;57.07;100365.03;4498631;31;33960;-67
2022/10/13 01:38:19;;;;;;;6.70;4.90;;;;;;;14.63;57.01;100358.44;4485903;31;34072;-67
2022/10/13 01:40:50;;;;;;;8.43;3.97;;;;;;;14.74;56.49;100347.66;4487101;31;33300;-67
2022/10/13 01:43:25;;;;;;;8.68;4.15;;;;;;;14.77;56.25;100355.47;4493310;31;33674;-66
2022/10/13 01:46:13;;;;;;;8.50;4.18;;;;;;;14.82;55.93;100361.34;4482094;31;35157;-67
2022/10/13 01:48:42;;;;;;;6.75;4.72;;;;;;;14.83;55.97;100359.50;4496152;31;34714;-68
2022/10/13 01:51:12;;;;;;;3.83;3.40;;;;;;;14.81;55.89;100356.09;4497333;31;33339;-68
2022/10/13 01:53:41;;;;;;;10.77;6.10;;;;;;;14.77;56.24;100346.56;4487064;31;32875;-68
2022/10/13 01:56:08;;;;;;;6.90;5.57;;;;;;;14.77;56.30;100350.09;4484692;31;35396;-68
2022/10/13 01:58:41;;;;;;;8.90;5.47;;;;;;;14.77;56.40;100351.94;4494366;31;33790;-68
2022/10/13 02:01:21;;;;;;;7.30;5.20;;;;;;;14.81;56.54;100342.63;4500066;31;33220;-70
2022/10/13 02:04:00;;;;;;;8.80;5.93;;;;;;;14.86;56.27;100341.25;4487136;31;33762;-69
2022/10/13 02:06:50;;;;;;;7.37;5.10;;;;;;;14.81;56.36;100339.91;4484536;31;32769;-68
2022/10/13 02:09:43;;;;;;;7.60;5.43;;;;;;;14.77;56.35;100336.63;4484540;32;33751;-70
2022/10/13 02:12:15;;;;;;;8.25;6.90;;;;;;;14.78;56.16;100342.88;4491341;31;34583;-69
2022/10/13 02:14:44;;;;;;;7.40;4.70;;;;;;;14.55;56.73;100339.38;4481374;31;33320;-70
2022/10/13 02:17:13;;;;;;;11.80;5.75;;;;;;;14.65;56.28;100346.56;4485884;31;35265;-70
2022/10/13 02:19:41;;;;;;;7.47;5.90;;;;;;;14.71;56.00;100338.97;4488305;31;34796;-67
2022/10/13 02:22:10;;;;;;;8.18;5.72;;;;;;;14.76;55.82;100351.06;4493184;31;33383;-66
2022/10/13 02:24:38;;;;;;;13.80;7.40;;;;;;;14.75;56.09;100353.91;4499630;31;34954;-66
2022/10/13 02:27:05;;;;;;;6.32;4.40;;;;;;;14.85;55.64;100350.31;4492391;31;34864;-66
2022/10/13 02:29:33;;;;;;;8.85;6.05;;;;;;;14.70;55.96;100346.16;4486133;31;33644;-66
2022/10/13 02:32:01;;;;;;;5.05;3.35;;;;;;;14.77;55.33;100342.00;4496018;31;34409;-66
2022/10/13 02:34:28;;;;;;;8.55;4.68;;;;;;;14.73;55.50;100339.69;4495504;31;33767;-66
2022/10/13 02:36:56;;;;;;;7.35;5.47;;;;;;;14.75;55.04;100345.81;4486883;31;34249;-67
2022/10/13 02:39:23;;;;;;;7.43;5.12;;;;;;;14.74;54.74;100344.09;4489186;31;34612;-68
2022/10/13 02:41:51;;;;;;;13.10;7.22;;;;;;;14.69;55.17;100339.09;4499816;31;33292;-67
2022/10/13 02:44:19;;;;;;;10.27;6.00;;;;;;;14.68;55.71;100342.78;4484741;31;32242;-66
2022/10/13 02:46:47;;;;;;;11.43;5.53;;;;;;;14.73;55.21;100339.69;4487792;31;34036;-66
2022/10/13 02:49:14;;;;;;;10.60;5.62;;;;;;;14.67;55.43;100343.75;4493211;31;34685;-67
2022/10/13 02:51:42;;;;;;;8.52;6.40;;;;;;;14.74;55.16;100342.25;4500100;31;32055;-67
2022/10/13 02:54:09;;;;;;;13.02;6.05;;;;;;;14.71;55.24;100345.22;4490944;31;34031;-67
2022/10/13 02:56:37;;;;;;;8.98;6.60;;;;;;;14.82;54.84;100349.69;4490317;31;32738;-66
2022/10/13 02:59:05;;;;;;;8.48;5.28;;;;;;;14.84;54.52;100345.06;4497215;31;33831;-66
2022/10/13 03:01:32;;;;;;;9.13;5.37;;;;;;;14.81;54.67;100343.47;4490958;31;33351;-66
2022/10/13 03:03:59;;;;;;;5.70;3.67;;;;;;;14.77;54.70;100349.25;4497547;31;33747;-66
2022/10/13 03:06:27;;;;;;;14.35;5.62;;;;;;;14.72;54.91;100344.22;4507057;31;34020;-66
2022/10/13 03:08:54;;;;;;;7.55;5.75;;;;;;;14.60;55.45;100347.91;4515018;31;32608;-67
2022/10/13 03:11:22;;;;;;;14.48;7.10;;;;;;;14.63;55.13;100343.13;4500888;31;33060;-66
2022/10/13 03:13:50;;;;;;;9.27;5.30;;;;;;;14.59;54.73;100347.06;4499704;31;33496;-66
2022/10/13 03:16:17;;;;;;;7.00;5.55;;;;;;;14.45;55.13;100344.63;4513294;31;34222;-66
2022/10/13 03:18:45;;;;;;;10.73;7.20;;;;;;;14.34;55.49;100345.47;4506729;31;33858;-67
2022/10/13 03:21:12;;;;;;;7.37;4.05;;;;;;;14.44;55.11;100343.78;4500530;31;33478;-66
2022/10/13 03:23:40;;;;;;;6.03;4.95;;;;;;;14.50;54.80;100339.69;4502070;31;33591;-66
2022/10/13 03:26:07;;;;;;;6.93;3.10;;;;;;;14.47;54.62;100347.19;4500905;31;34098;-67
2022/10/13 03:28:35;;;;;;;7.22;4.90;;;;;;;14.44;54.58;100343.78;4492653;31;33816;-66
2022/10/13 03:31:06;;;;;;;7.22;4.35;;;;;;;14.24;54.83;100341.81;4500405;31;33320;-67
2022/10/13 03:33:33;;;;;;;10.43;5.68;;;;;;;14.38;54.18;100338.87;4503660;31;33914;-66
2022/10/13 03:36:02;;;;;;;4.15;3.17;;;;;;;14.37;54.19;100342.53;4499837;31;34880;-66
2022/10/13 03:38:32;;;;;;;6.30;4.15;;;;;;;14.41;54.47;100330.56;4485225;32;34171;-65
2022/10/13 03:41:12;;;;;;;10.07;4.05;;;;;;;14.18;54.99;100340.47;4486371;31;33279;-65
2022/10/13 03:43:41;;;;;;;10.55;5.70;;;;;;;13.96;55.43;100338.66;4488830;31;35142;-65
2022/10/13 03:46:13;;;;;;;8.45;5.55;;;;;;;13.93;55.50;100333.53;4492955;31;32714;-65
2022/10/13 03:48:41;;;;;;;6.18;3.90;;;;;;;14.09;55.34;100334.97;4493876;31;35023;-65
2022/10/13 03:51:15;;;;;;;7.20;5.32;;;;;;;14.14;55.11;100328.25;4488755;31;33335;-65
2022/10/13 03:53:45;;;;;;;;;;;;;;;14.19;55.26;100328.75;4496573;31;34839;-65
2022/10/13 03:56:17;;;;;;;6.35;4.75;;;;;;;14.20;55.54;100333.13;4485294;31;31853;-65
2022/10/13 03:58:53;;;;;;;7.72;4.90;;;;;;;14.25;55.40;100334.59;4491649;31;34982;-65
2022/10/13 04:01:22;;;;;;;9.90;4.35;;;;;;;14.26;55.09;100342.56;4497626;31;32019;-65
2022/10/13 04:03:54;;;;;;;7.12;5.00;;;;;;;14.27;55.07;100332.66;4484739;31;32731;-65
2022/10/13 04:06:22;;;;;;;8.02;5.32;;;;;;;14.33;54.67;100326.78;4494452;31;33946;-65
2022/10/13 04:08:50;;;;;;;6.12;3.17;;;;;;;14.25;55.10;100326.53;4493231;31;33817;-65
2022/10/13 04:11:18;;;;;;;7.07;5.07;;;;;;;14.29;55.39;100330.69;4493377;31;32169;-65
2022/10/13 04:13:50;;;;;;;6.22;4.25;;;;;;;14.28;55.42;100328.97;4485212;31;34832;-65
2022/10/13 04:16:19;;;;;;;9.77;6.18;;;;;;;14.36;55.01;100331.91;4495427;31;34009;-65
2022/10/13 04:18:53;;;;;;;10.32;6.93;;;;;;;14.34;55.09;100328.47;4498453;31;34824;-65
2022/10/13 04:21:22;;;;;;;9.35;6.25;;;;;;;14.30;55.29;100321.63;4489775;31;33454;-65
2022/10/13 04:23:50;;;;;;;13.18;7.62;;;;;;;14.33;55.24;100322.22;4499108;31;35089;-68
2022/10/13 04:26:20;;;;;;;8.57;5.35;;;;;;;14.28;55.40;100324.44;4495495;31;34727;-65
2022/10/13 04:28:49;;;;;;;7.22;4.43;;;;;;;14.32;54.92;100311.59;4495419;31;34051;-66
2022/10/13 04:31:18;;;;;;;6.20;3.75;;;;;;;14.34;54.81;100326.62;4485258;31;33741;-65
2022/10/13 04:33:45;;;;;;;12.02;5.50;;;;;;;14.31;55.02;100318.78;4494711;31;33976;-65
2022/10/13 04:36:14;;;;;;;9.07;4.72;;;;;;;14.34;54.44;100317.69;4490054;31;32884;-66
2022/10/13 04:38:42;;;;;;;10.93;6.03;;;;;;;14.12;54.76;100321.25;4492575;31;34828;-65
2022/10/13 04:41:13;;;;;;;7.90;5.05;;;;;;;14.12;54.45;100324.81;4489782;31;32117;-66
2022/10/13 04:43:41;;;;;;;7.43;4.45;;;;;;;14.07;54.39;100332.41;4484790;31;35118;-65
2022/10/13 04:46:17;;;;;;;10.02;5.35;;;;;;;14.05;54.54;100330.81;4484345;31;32199;-65
2022/10/13 04:48:45;;;;;;;5.30;3.58;;;;;;;14.12;54.09;100324.81;4498639;31;33943;-65
2022/10/13 04:51:16;;;;;;;11.10;6.80;;;;;;;14.12;54.36;100329.34;4499214;31;33296;-65
2022/10/13 04:53:43;;;;;;;7.43;4.93;;;;;;;14.15;54.24;100331.78;4500478;31;34071;-65
2022/10/13 04:56:15;;;;;;;7.60;4.28;;;;;;;14.11;54.47;100324.94;4492405;31;35215;-65
2022/10/13 04:58:44;;;;;;;6.30;3.83;;;;;;;14.11;54.42;100331.19;4486594;31;34846;-64
2022/10/13 05:01:14;;;;;;;7.90;4.93;;;;;;;14.11;54.56;100328.50;4491373;31;34632;-65
2022/10/13 05:03:53;;;;;;;7.28;5.00;;;;;;;14.15;54.37;100329.94;4487724;31;33886;-65
2022/10/13 05:06:23;;;;;;;4.65;4.12;;;;;;;14.11;54.39;100330.34;4495867;31;34079;-64
2022/10/13 05:08:55;;;;;;;6.20;4.57;;;;;;;14.05;54.53;100323.59;4493381;31;34725;-65
2022/10/13 05:11:24;;;;;;;4.68;4.15;;;;;;;13.99;54.88;100324.09;4484542;31;33216;-65
2022/10/13 05:13:52;;;;;;;7.80;3.35;;;;;;;14.04;54.95;100323.72;4487615;31;34041;-64
2022/10/13 05:16:21;;;;;;;5.47;3.62;;;;;;;14.06;55.04;100327.12;4498501;31;33962;-66
2022/10/13 05:18:50;;;;;;;9.48;4.93;;;;;;;14.02;54.95;100321.16;4497788;31;34103;-65
2022/10/13 05:21:21;;;;;;;9.07;5.55;;;;;;;13.92;55.18;100318.34;4496597;31;34681;-65
2022/10/13 05:23:52;;;;;;;8.68;5.70;;;;;;;13.83;55.48;100319.06;4493181;31;34776;-65
2022/10/13 05:26:30;;;;;;;11.48;5.75;;;;;;;13.88;55.60;100324.94;4499366;31;34023;-64
2022/10/13 05:29:00;;;;;;;8.20;5.32;;;;;;;13.74;56.64;100330.56;4492441;31;34051;-65
2022/10/13 05:31:29;;;;;;;8.40;5.25;;;;;;;13.96;55.37;100335.09;4488626;31;34359;-64
2022/10/13 05:33:59;;;;;;;7.00;4.82;;;;;;;14.04;54.69;100329.13;4497665;31;32828;-64
2022/10/13 05:36:32;;;;;;;10.90;6.53;;;;;;;14.12;54.69;100330.19;4484239;32;34458;-66
2022/10/13 05:39:02;;;;;;;7.32;4.50;;;;;;;14.10;54.88;100326.78;4498811;31;33621;-64
2022/10/13 05:41:30;;;;;;;7.43;5.45;;;;;;;14.13;54.49;100325.69;4498048;31;33752;-67
2022/10/13 05:43:59;;;;;;;5.97;4.45;;;;;;;14.15;54.74;100329.09;4497843;31;34915;-66
2022/10/13 05:46:27;;;;;;;8.52;4.80;;;;;;;14.11;55.36;100333.88;4482415;31;34886;-66
2022/10/13 05:48:55;;;;;;;6.75;3.97;;;;;;;13.99;56.44;100334.84;4496743;31;33632;-66
2022/10/13 05:51:44;;;;;;;9.65;5.78;;;;;;;14.29;55.11;100333.38;4484081;31;34403;-65
2022/10/13 05:54:17;;;;;;;9.73;6.47;;;;;;;14.37;54.80;100336.31;4498820;31;34424;-66
2022/10/13 05:56:55;;;;;;;12.27;5.43;;;;;;;14.45;54.82;100341.94;4486148;31;35265;-66
2022/10/13 05:59:25;;;;;;;4.80;3.50;;;;;;;14.45;54.94;100336.53;4487538;31;33599;-65
2022/10/13 06:01:54;;;;;;;9.07;4.43;;;;;;;14.42;55.13;100339.50;4498643;31;34516;-66
2022/10/13 06:04:43;;;;;;;5.35;3.72;;;;;;;14.40;55.49;100342.28;4496216;31;31224;-65
2022/10/13 06:07:10;;;;;;;6.30;4.28;;;;;;;14.49;55.52;100343.38;4490384;31;35158;-66
2022/10/13 06:09:39;;;;;;;7.28;4.35;;;;;;;14.54;55.52;100352.00;4490684;31;34513;-66
2022/10/13 06:12:07;;;;;;;8.18;6.00;;;;;;;14.58;55.89;100353.44;4488369;31;34550;-66
2022/10/13 06:14:36;;;;;;;5.68;3.08;;;;;;;14.65;56.19;100351.09;4493699;31;33279;-66
2022/10/13 06:17:05;;;;;;;6.75;4.37;;;;;;;14.76;55.98;100351.06;4482951;31;33322;-65
2022/10/13 06:19:33;;;;;;;6.37;3.87;;;;;;;14.86;55.49;100353.84;4496807;31;32564;-66
2022/10/13 06:22:06;;;;;;;44.90;7.60;;;;;;;14.87;55.48;100358.28;4491568;31;33339;-66
2022/10/13 06:24:34;;;;;;;14.95;5.95;;;;;;;14.94;55.39;100359.47;4503294;31;33891;-66
2022/10/13 06:27:03;;;;;;;10.85;6.37;;;;;;;14.98;55.63;100355.53;4499551;31;35144;-67
2022/10/13 06:29:32;;;;;;;11.65;6.53;;;;;;;15.02;55.56;100359.66;4498134;31;32283;-66
2022/10/13 06:31:59;;;;;;;10.73;6.22;;;;;;;15.07;55.83;100357.47;4506454;31;34615;-66
2022/10/13 06:34:27;;;;;;;8.30;4.93;;;;;;;15.17;55.71;100360.22;4507800;31;32251;-66
2022/10/13 06:36:54;;;;;;;13.05;4.68;;;;;;;15.30;55.70;100350.13;4516449;31;35091;-67
2022/10/13 06:39:22;;;;;;;8.52;5.18;;;;;;;15.34;55.94;100350.72;4501579;31;33270;-66
2022/10/13 06:41:51;;;;;;;8.57;4.47;;;;;;;15.46;55.80;100360.47;4489676;31;34088;-66
2022/10/13 06:44:18;;;;;;;6.05;4.18;;;;;;;15.55;55.23;100356.97;4490074;31;34938;-66
2022/10/13 06:46:46;;;;;;;9.63;4.93;;;;;;;15.60;54.96;100362.84;4496632;31;36200;-66
2022/10/13 06:49:13;;;;;;;11.60;7.50;;;;;;;15.65;55.02;100358.87;4496269;31;33734;-66
2022/10/13 06:51:41;;;;;;;15.15;6.50;;;;;;;15.63;55.17;100353.59;4489091;31;33444;-67
2022/10/13 06:54:08;;;;;;;16.08;6.72;;;;;;;15.70;55.12;100364.78;4498654;31;34493;-65
2022/10/13 06:56:36;;;;;;;10.07;5.70;;;;;;;15.65;55.44;100359.72;4492520;31;33150;-66
2022/10/13 06:59:07;;;;;;;12.55;6.30;;;;;;;15.83;55.24;100362.72;4483005;31;33976;-66
2022/10/13 07:01:35;;;;;;;13.35;8.52;;;;;;;15.93;55.30;100357.38;4486234;31;32573;-65
2022/10/13 07:04:11;;;;;;;11.60;7.05;;;;;;;16.01;55.15;100350.31;4491676;31;32834;-65
2022/10/13 07:06:39;;;;;;;8.57;6.37;;;;;;;16.06;55.26;100352.63;4485866;31;34018;-65
2022/10/13 07:09:10;;;;;;;15.45;7.62;;;;;;;16.09;55.85;100355.03;4486509;31;33805;-65
2022/10/13 07:11:37;;;;;;;11.65;6.40;;;;;;;16.14;56.26;100355.47;4497780;31;33623;-65
2022/10/13 07:14:05;;;;;;;9.52;5.30;;;;;;;16.30;56.12;100355.81;4495171;31;32807;-64
2022/10/13 07:16:32;;;;;;;9.30;5.50;;;;;;;16.41;56.34;100356.72;4484644;31;34246;-65
2022/10/13 07:19:01;;;;;;;11.98;6.68;;;;;;;16.43;56.58;100352.87;4484284;31;34983;-65
2022/10/13 07:21:29;;;;;;;13.82;8.52;;;;;;;16.61;56.18;100360.34;4493855;31;33255;-66
2022/10/13 07:23:57;;;;;;;12.73;7.20;;;;;;;16.26;56.42;100354.41;4487271;31;33876;-65
2022/10/13 07:26:27;;;;;;;12.80;7.65;;;;;;;16.54;55.26;100352.78;4485196;31;34960;-65
2022/10/13 07:28:54;;;;;;;10.90;8.27;;;;;;;16.66;54.25;100349.94;4493379;31;33367;-66
2022/10/13 07:31:22;;;;;;;10.38;6.15;;;;;;;16.34;54.38;100358.25;4487474;31;33869;-65
2022/10/13 07:33:50;;;;;;;7.70;5.00;;;;;;;15.97;55.28;100353.41;4492842;31;35121;-65
2022/10/13 07:36:18;;;;;;;17.67;7.60;;;;;;;16.01;55.45;100349.44;4487112;31;35170;-65
2022/10/13 07:38:46;;;;;;;20.73;8.40;;;;;;;16.12;55.13;100352.06;4488596;31;33933;-65
2022/10/13 07:41:14;;;;;;;12.85;7.78;;;;;;;16.46;55.11;100354.47;4498632;31;32303;-66
2022/10/13 07:43:42;;;;;;;8.48;6.03;;;;;;;16.28;54.81;100356.97;4484919;31;33720;-65
2022/10/13 07:46:11;;;;;;;11.40;5.80;;;;;;;16.40;54.03;100355.00;4494490;31;35191;-65
2022/10/13 07:48:39;;;;;;;9.57;5.50;;;;;;;16.38;53.54;100351.59;4489967;31;34135;-66
2022/10/13 07:51:11;;;;;;;10.93;6.32;;;;;;;16.33;54.02;100353.84;4485146;31;33806;-66
2022/10/13 07:53:40;;;;;;;12.43;7.85;;;;;;;16.45;53.72;100356.31;4485960;31;33723;-66
2022/10/13 07:56:10;;;;;;;11.40;7.30;;;;;;;16.17;53.96;100359.75;4496616;31;32968;-65
2022/10/13 07:58:40;;;;;;;10.23;5.47;;;;;;;16.73;53.27;100357.38;4495810;31;32023;-65
2022/10/13 08:01:08;;;;;;;12.93;7.93;;;;;;;16.95;53.09;100361.72;4496379;31;33014;-65
2022/10/13 08:03:38;;;;;;;15.10;11.35;;;;;;;17.12;52.91;100351.19;4492404;31;32902;-65
2022/10/13 08:06:13;;;;;;;9.02;6.35;;;;;;;17.00;53.32;100355.87;4488264;31;33889;-66
2022/10/13 08:08:41;;;;;;;7.43;4.95;;;;;;;17.24;52.81;100352.78;4487462;31;34241;-65
2022/10/13 08:11:13;;;;;;;12.30;5.60;;;;;;;17.17;53.07;100340.78;4489515;31;33434;-66
2022/10/13 08:13:48;;;;;;;15.93;7.40;;;;;;;17.02;52.84;100344.94;4491101;31;34888;-65
2022/10/13 08:16:20;;;;;;;9.15;5.05;;;;;;;17.20;52.27;100345.91;4483598;31;32951;-65
2022/10/13 08:18:48;;;;;;;17.73;10.57;;;;;;;17.00;52.71;100339.66;4490264;31;32247;-65
2022/10/13 08:21:16;;;;;;;15.77;7.97;;;;;;;16.59;53.44;100340.69;4486620;31;33509;-65
2022/10/13 08:24:13;;;;;;;10.02;6.00;;;;;;;16.96;52.40;100339.09;4501014;31;33605;-66
2022/10/13 08:26:41;;;;;;;16.55;9.35;;;;;;;17.38;52.40;100332.53;4508693;31;33993;-65
2022/10/13 08:29:09;;;;;;;9.93;6.12;;;;;;;17.40;51.02;100333.25;4487100;31;35383;-66
2022/10/13 08:31:49;;;;;;;12.20;6.45;;;;;;;17.51;50.97;100335.78;4494300;31;33271;-65
2022/10/13 08:34:17;;;;;;;14.57;7.70;;;;;;;17.46;50.83;100328.09;4496907;31;32520;-66
2022/10/13 08:36:45;;;;;;;12.18;5.05;;;;;;;17.55;49.60;100330.94;4489031;31;35333;-64
2022/10/13 08:39:12;;;;;;;8.18;4.82;;;;;;;17.32;48.91;100322.28;4483469;31;33829;-66
2022/10/13 08:41:42;;;;;;;13.45;5.25;;;;;;;17.01;48.82;100330.53;4487374;31;32350;-67
2022/10/13 08:44:24;;;;;;;6.60;4.18;;;;;;;17.30;48.64;100325.13;4483015;31;34929;-67
2022/10/13 08:47:32;;;;;;;10.90;5.18;;;;;;;17.72;46.58;100322.06;4492530;31;33630;-66
2022/10/13 08:50:03;;;;;;;7.75;4.85;;;;;;;17.78;46.50;100321.50;4492852;31;33929;-66
2022/10/13 08:52:51;;;;;;;6.65;3.47;;;;;;;18.02;46.27;100317.44;4485939;31;33028;-67
2022/10/13 08:55:34;;;;;;;8.95;4.57;;;;;;;18.06;45.23;100314.28;4492635;31;33649;-66
2022/10/13 08:58:10;;;;;;;8.30;5.07;;;;;;;18.07;44.78;100317.81;4483506;31;33629;-67
2022/10/13 09:00:38;;;;;;;11.05;6.20;;;;;;;18.14;45.04;100314.38;4482569;31;34872;-66
2022/10/13 09:03:25;;;;;;;7.53;4.07;;;;;;;17.40;46.86;100317.00;4486415;31;33983;-66
2022/10/13 09:06:10;;;;;;;11.43;4.53;;;;;;;17.83;46.60;100307.53;4494702;31;35914;-66
2022/10/13 09:08:52;;;;;;;8.88;3.97;;;;;;;17.32;46.75;100320.41;4483728;31;34899;-65
2022/10/13 09:11:20;;;;;;;10.73;3.92;;;;;;;17.75;46.56;100310.91;4493203;31;34895;-68
2022/10/13 09:13:48;;;;;;;5.25;2.97;;;;;;;17.60;46.10;100313.25;4477903;31;200891;-65
2022/10/13 09:16:25;;;;;;;5.15;4.18;;;;;;;17.73;45.81;100302.13;4492907;31;32765;-64
2022/10/13 09:18:53;;;;;;;32.83;4.68;;;;;;;17.96;46.06;100307.19;4497804;31;34300;-65
2022/10/13 09:21:23;;;;;;;6.97;4.50;;;;;;;18.16;45.03;100314.22;4507349;31;33604;-65
2022/10/13 09:23:52;;;;;;;12.77;5.03;;;;;;;18.04;45.93;100294.63;4489210;31;32636;-66
2022/10/13 09:26:23;;;;;;;6.53;3.12;;;;;;;17.98;46.10;100305.16;4494559;31;32776;-65
2022/10/13 09:28:51;;;;;;;12.45;7.03;;;;;;;17.82;46.79;100297.72;4493890;31;33988;-66
2022/10/13 09:31:24;;;;;;;6.00;3.50;;;;;;;17.66;46.95;100298.28;4493011;31;33927;-65
2022/10/13 09:34:01;;;;;;;15.00;7.25;;;;;;;18.15;46.55;100293.56;4485941;31;34523;-65
2022/10/13 09:36:30;;;;;;;10.93;6.45;;;;;;;18.62;45.97;100294.28;4492325;31;32424;-66
2022/10/13 09:39:05;;;;;;;10.63;4.68;;;;;;;17.95;45.52;100300.94;4494967;31;35301;-66
2022/10/13 09:41:34;;;;;;;9.48;4.47;;;;;;;18.13;46.08;100296.41;4484294;31;32572;-65
2022/10/13 09:44:26;;;;;;;9.93;4.90;;;;;;;18.32;45.38;100297.31;4500793;31;32265;-66
2022/10/13 09:46:59;;;;;;;7.37;5.15;;;;;;;18.62;44.71;100286.16;4491805;31;32585;-66
2022/10/13 09:49:35;;;;;;;10.15;5.75;;;;;;;18.50;45.44;100283.81;4497606;31;34117;-65
2022/10/13 09:52:04;;;;;;;8.60;4.50;;;;;;;18.55;44.77;100286.91;4495350;31;32667;-66
2022/10/13 09:54:38;;;;;;;6.12;3.97;;;;;;;18.62;45.01;100288.03;4496424;31;33848;-66
2022/10/13 09:57:27;;;;;;;11.32;4.32;;;;;;;18.76;45.31;100284.78;4496413;31;35049;-66
2022/10/13 10:00:24;;;;;;;9.38;5.07;;;;;;;18.72;45.33;100291.53;4483749;31;32448;-64
2022/10/13 10:03:04;;;;;;;11.40;5.57;;;;;;;18.85;44.61;100289.28;4485401;31;35006;-65
2022/10/13 10:05:43;;;;;;;12.45;7.22;;;;;;;18.45;45.83;100283.41;4487043;31;33582;-64
2022/10/13 10:08:15;;;;;;;9.40;5.72;;;;;;;18.73;44.74;100271.53;4484638;31;35006;-64
2022/10/13 10:10:43;;;;;;;10.07;4.97;;;;;;;18.73;44.60;100279.69;4483123;31;33918;-64
2022/10/13 10:13:12;;;;;;;17.90;7.32;;;;;;;18.81;45.06;100282.47;4484265;31;32507;-65
2022/10/13 10:15:48;;;;;;;10.93;6.25;;;;;;;19.07;43.90;100279.00;4492667;31;32450;-64
2022/10/13 10:18:20;;;;;;;10.13;6.10;;;;;;;18.45;46.37;100276.12;4483917;31;33959;-64
2022/10/13 10:20:58;;;;;;;12.18;8.02;;;;;;;18.65;45.43;100268.75;4491515;31;34927;-65
2022/10/13 10:23:46;;;;;;;10.73;6.03;;;;;;;18.92;45.41;100273.25;4493390;31;33679;-65
2022/10/13 10:26:21;;;;;;;8.10;5.70;;;;;;;19.31;44.22;100262.88;4493415;31;35621;-64
2022/10/13 10:29:12;;;;;;;11.27;6.18;;;;;;;19.15;44.65;100257.34;4499124;31;34021;-65
2022/10/13 10:31:49;;;;;;;10.02;5.82;;;;;;;19.36;45.30;100254.28;4498248;31;34321;-64
2022/10/13 10:34:30;;;;;;;20.02;7.30;;;;;;;19.55;44.22;100259.50;4497802;31;34651;-66
2022/10/13 10:37:21;;;;;;;15.63;5.22;;;;;;;19.69;44.30;100262.66;4496545;31;31951;-65
2022/10/13 10:40:11;;;;;;;10.55;5.65;;;;;;;19.62;44.09;100257.00;4496406;31;34053;-64
2022/10/13 10:42:57;;;;;;;10.38;6.50;;;;;;;19.39;45.46;100255.81;4492644;31;34618;-64
2022/10/13 10:45:27;;;;;;;17.73;8.38;;;;;;;19.72;44.50;100254.19;4496860;31;32959;-65
2022/10/13 10:48:00;;;;;;;11.12;7.70;;;;;;;19.86;44.62;100242.72;4496388;31;33445;-65
2022/10/13 10:50:28;;;;;;;9.95;5.47;;;;;;;19.71;44.57;100239.78;4489724;31;32066;-64
2022/10/13 10:53:13;;;;;;;17.12;7.18;;;;;;;19.98;44.56;100238.69;4489581;31;34005;-67
2022/10/13 10:55:54;;;;;;;11.80;6.30;;;;;;;19.92;44.08;100239.34;4490814;31;32445;-67
2022/10/13 10:58:40;;;;;;;26.33;8.40;;;;;;;20.16;44.52;100232.28;4487981;31;33395;-66
2022/10/13 11:01:32;;;;;;;16.70;8.82;;;;;;;20.19;43.66;100229.25;4500288;31;34472;-66
2022/10/13 11:04:31;;;;;;;25.48;10.43;;;;;;;19.95;44.22;100225.44;4490044;31;35128;-66
2022/10/13 11:06:59;;;;;;;11.85;8.18;;;;;;;20.07;44.03;100209.69;4494429;31;34038;-66
2022/10/13 11:09:53;;;;;;;12.20;7.12;;;;;;;20.19;44.35;100213.81;4486894;31;31925;-66
2022/10/13 11:12:24;;;;;;;13.25;9.30;;;;;;;19.65;46.09;100217.84;4493715;31;34087;-67
2022/10/13 11:15:01;;;;;;;14.80;9.82;;;;;;;19.38;45.75;100214.25;4491578;31;35239;-66
2022/10/13 11:17:31;;;;;;;11.82;6.85;;;;;;;20.30;44.25;100214.53;4492583;31;33829;-67
2022/10/13 11:19:59;;;;;;;11.82;6.60;;;;;;;20.46;43.15;100204.53;4501109;31;33592;-67
2022/10/13 11:22:28;;;;;;;14.65;9.65;;;;;;;19.70;44.88;100196.47;4488261;31;32772;-65
2022/10/13 11:24:57;;;;;;;15.98;9.32;;;;;;;20.13;44.55;100205.47;4491729;31;34582;-64
2022/10/13 11:27:33;;;;;;;17.67;11.07;;;;;;;20.07;44.12;100200.69;4487567;31;32139;-66
2022/10/13 11:30:02;;;;;;;14.87;8.15;;;;;;;20.12;44.25;100198.31;4491158;31;32300;-65
2022/10/13 11:32:40;;;;;;;16.62;11.95;;;;;;;20.23;43.70;100192.59;4495885;31;34107;-65
2022/10/13 11:35:22;;;;;;;10.50;5.62;;;;;;;20.53;43.81;100193.00;4491234;31;33863;-66
2022/10/13 11:38:03;;;;;;;8.82;6.40;;;;;;;20.40;43.01;100186.16;4481344;31;32259;-65
2022/10/13 11:40:34;;;;;;;11.77;7.93;;;;;;;20.29;44.01;100182.91;4490095;31;33512;-64
2022/10/13 11:43:31;;;;;;;14.55;7.78;;;;;;;20.05;43.43;100184.53;4494230;31;34980;-66
2022/10/13 11:46:08;;;;;;;12.23;8.20;;;;;;;20.09;43.21;100182.34;4481618;31;33791;-65